sensor_id;sensor_type;location;lat;lon;timestamp;P1;durP1;ratioP1;P2;durP2;ratioP2
2772;SDS011;1394;47.044;15.744;2022-10-17T00:02:26;33.50;;;9.47;;
2772;SDS011;1394;47.044;15.744;2022-10-17T00:04:53;34.83;;;8.77;;
2772;SDS011;1394;47.044;15.744;2022-10-17T00:07:21;33.33;;;8.90;;
2772;SDS011;1394;47.044;15.744;2022-10-17T00:09:49;33.23;;;9.30;;
2772;SDS011;1394;47.044;15.744;2022-10-17T00:12:16;33.97;;;8.97;;
2772;SDS011;1394;47.044;15.744;2022-10-17T00:14:43;36.50;;;10.77;;
2772;SDS011;1394;47.044;15.744;2022-10-17T00:17:10;34.43;;;9.13;;
2772;SDS011;1394;47.044;15.744;2022-10-17T00:19:39;34.53;;;9.60;;
2772;SDS011;1394;47.044;15.744;2022-10-17T00:22:06;34.40;;;10.23;;
2772;SDS011;1394;47.044;15.744;2022-10-17T00:24:35;34.00;;;9.80;;
2772;SDS011;1394;47.044;15.744;2022-10-17T00:27:02;34.60;;;9.03;;
2772;SDS011;1394;47.044;15.744;2022-10-17T00:29:29;33.90;;;9.90;;
2772;SDS011;1394;47.044;15.744;2022-10-17T00:31:57;35.40;;;10.70;;
2772;SDS011;1394;47.044;15.744;2022-10-17T00:34:24;34.27;;;11.00;;
2772;SDS011;1394;47.044;15.744;2022-10-17T00:36:51;48.13;;;13.40;;
2772;SDS011;1394;47.044;15.744;2022-10-17T00:39:19;35.67;;;10.30;;
2772;SDS011;1394;47.044;15.744;2022-10-17T00:41:50;33.13;;;9.87;;
2772;SDS011;1394;47.044;15.744;2022-10-17T00:47:05;34.20;;;9.43;;
2772;SDS011;1394;47.044;15.744;2022-10-17T00:49:33;33.93;;;8.80;;
2772;SDS011;1394;47.044;15.744;2022-10-17T00:52:02;33.30;;;9.07;;
2772;SDS011;1394;47.044;15.744;2022-10-17T00:54:32;34.90;;;10.33;;
2772;SDS011;1394;47.044;15.744;2022-10-17T00:57:01;33.00;;;8.77;;
2772;SDS011;1394;47.044;15.744;2022-10-17T00:59:29;31.87;;;8.20;;
2772;SDS011;1394;47.044;15.744;2022-10-17T01:01:59;32.57;;;9.70;;
2772;SDS011;1394;47.044;15.744;2022-10-17T01:04:27;34.60;;;10.00;;
2772;SDS011;1394;47.044;15.744;2022-10-17T01:06:55;33.77;;;10.03;;
2772;SDS011;1394;47.044;15.744;2022-10-17T01:09:22;32.90;;;9.53;;
2772;SDS011;1394;47.044;15.744;2022-10-17T01:11:51;34.10;;;11.20;;
2772;SDS011;1394;47.044;15.744;2022-10-17T01:14:21;33.47;;;10.40;;
2772;SDS011;1394;47.044;15.744;2022-10-17T01:16:56;35.00;;;9.40;;
2772;SDS011;1394;47.044;15.744;2022-10-17T01:19:31;35.43;;;10.60;;
2772;SDS011;1394;47.044;15.744;2022-10-17T01:22:01;35.20;;;11.20;;
2772;SDS011;1394;47.044;15.744;2022-10-17T01:24:38;31.07;;;7.77;;
2772;SDS011;1394;47.044;15.744;2022-10-17T01:27:20;31.57;;;8.27;;
2772;SDS011;1394;47.044;15.744;2022-10-17T01:29:54;31.50;;;8.00;;
2772;SDS011;1394;47.044;15.744;2022-10-17T01:32:28;31.47;;;7.13;;
2772;SDS011;1394;47.044;15.744;2022-10-17T01:34:58;30.80;;;7.00;;
2772;SDS011;1394;47.044;15.744;2022-10-17T01:37:29;30.47;;;7.27;;
2772;SDS011;1394;47.044;15.744;2022-10-17T01:39:59;42.13;;;9.13;;
2772;SDS011;1394;47.044;15.744;2022-10-17T01:42:30;33.17;;;9.07;;
2772;SDS011;1394;47.044;15.744;2022-10-17T01:45:00;33.03;;;9.00;;
2772;SDS011;1394;47.044;15.744;2022-10-17T01:47:31;33.30;;;7.20;;
2772;SDS011;1394;47.044;15.744;2022-10-17T01:49:59;34.20;;;8.90;;
2772;SDS011;1394;47.044;15.744;2022-10-17T01:52:29;33.83;;;8.87;;
2772;SDS011;1394;47.044;15.744;2022-10-17T01:55:01;31.37;;;7.43;;
2772;SDS011;1394;47.044;15.744;2022-10-17T01:57:30;30.77;;;7.30;;
2772;SDS011;1394;47.044;15.744;2022-10-17T01:59:59;31.80;;;8.10;;
2772;SDS011;1394;47.044;15.744;2022-10-17T02:02:28;32.30;;;7.40;;
2772;SDS011;1394;47.044;15.744;2022-10-17T02:04:57;31.40;;;8.30;;
2772;SDS011;1394;47.044;15.744;2022-10-17T02:07:25;33.43;;;9.07;;
2772;SDS011;1394;47.044;15.744;2022-10-17T02:09:52;31.60;;;8.47;;
2772;SDS011;1394;47.044;15.744;2022-10-17T02:12:36;32.13;;;8.93;;
2772;SDS011;1394;47.044;15.744;2022-10-17T02:15:23;30.97;;;7.73;;
2772;SDS011;1394;47.044;15.744;2022-10-17T02:17:56;31.07;;;7.50;;
2772;SDS011;1394;47.044;15.744;2022-10-17T02:20:28;32.90;;;8.20;;
2772;SDS011;1394;47.044;15.744;2022-10-17T02:22:57;32.00;;;8.27;;
2772;SDS011;1394;47.044;15.744;2022-10-17T02:25:32;31.50;;;8.10;;
2772;SDS011;1394;47.044;15.744;2022-10-17T02:28:03;31.57;;;8.03;;
2772;SDS011;1394;47.044;15.744;2022-10-17T02:30:34;31.27;;;7.73;;
2772;SDS011;1394;47.044;15.744;2022-10-17T02:33:04;30.90;;;7.13;;
2772;SDS011;1394;47.044;15.744;2022-10-17T02:35:35;31.50;;;6.90;;
2772;SDS011;1394;47.044;15.744;2022-10-17T02:38:04;29.87;;;6.07;;
2772;SDS011;1394;47.044;15.744;2022-10-17T02:40:33;30.40;;;6.20;;
2772;SDS011;1394;47.044;15.744;2022-10-17T02:43:00;29.97;;;6.40;;
2772;SDS011;1394;47.044;15.744;2022-10-17T02:45:28;30.20;;;5.90;;
2772;SDS011;1394;47.044;15.744;2022-10-17T02:48:01;29.70;;;5.93;;
2772;SDS011;1394;47.044;15.744;2022-10-17T02:50:32;30.07;;;6.50;;
2772;SDS011;1394;47.044;15.744;2022-10-17T02:53:03;29.97;;;6.27;;
2772;SDS011;1394;47.044;15.744;2022-10-17T02:55:31;29.90;;;6.43;;
2772;SDS011;1394;47.044;15.744;2022-10-17T02:57:59;30.07;;;5.70;;
2772;SDS011;1394;47.044;15.744;2022-10-17T03:00:33;29.77;;;5.80;;
2772;SDS011;1394;47.044;15.744;2022-10-17T03:03:00;29.57;;;5.90;;
2772;SDS011;1394;47.044;15.744;2022-10-17T03:05:31;29.63;;;6.07;;
2772;SDS011;1394;47.044;15.744;2022-10-17T03:07:58;29.87;;;6.30;;
2772;SDS011;1394;47.044;15.744;2022-10-17T03:10:27;29.63;;;6.00;;
2772;SDS011;1394;47.044;15.744;2022-10-17T03:12:54;30.20;;;6.93;;
2772;SDS011;1394;47.044;15.744;2022-10-17T03:15:21;30.93;;;6.30;;
2772;SDS011;1394;47.044;15.744;2022-10-17T03:17:48;30.87;;;6.70;;
2772;SDS011;1394;47.044;15.744;2022-10-17T03:20:16;29.37;;;5.93;;
2772;SDS011;1394;47.044;15.744;2022-10-17T03:22:44;30.10;;;6.47;;
2772;SDS011;1394;47.044;15.744;2022-10-17T03:25:11;29.60;;;6.13;;
2772;SDS011;1394;47.044;15.744;2022-10-17T03:27:40;29.20;;;4.90;;
2772;SDS011;1394;47.044;15.744;2022-10-17T03:30:08;31.80;;;5.87;;
2772;SDS011;1394;47.044;15.744;2022-10-17T03:32:35;28.90;;;5.27;;
2772;SDS011;1394;47.044;15.744;2022-10-17T03:35:06;29.50;;;5.43;;
2772;SDS011;1394;47.044;15.744;2022-10-17T03:37:33;29.27;;;5.57;;
2772;SDS011;1394;47.044;15.744;2022-10-17T03:40:00;29.10;;;5.73;;
2772;SDS011;1394;47.044;15.744;2022-10-17T03:42:27;30.80;;;6.00;;
2772;SDS011;1394;47.044;15.744;2022-10-17T03:44:56;29.83;;;6.00;;
2772;SDS011;1394;47.044;15.744;2022-10-17T03:47:27;29.73;;;6.27;;
2772;SDS011;1394;47.044;15.744;2022-10-17T03:49:55;30.70;;;6.57;;
2772;SDS011;1394;47.044;15.744;2022-10-17T03:52:22;30.60;;;6.70;;
2772;SDS011;1394;47.044;15.744;2022-10-17T03:54:49;30.37;;;7.13;;
2772;SDS011;1394;47.044;15.744;2022-10-17T03:57:17;34.23;;;7.83;;
2772;SDS011;1394;47.044;15.744;2022-10-17T03:59:44;33.13;;;7.70;;
2772;SDS011;1394;47.044;15.744;2022-10-17T04:02:13;31.60;;;6.93;;
2772;SDS011;1394;47.044;15.744;2022-10-17T04:04:40;34.23;;;7.63;;
2772;SDS011;1394;47.044;15.744;2022-10-17T04:07:07;30.67;;;6.27;;
2772;SDS011;1394;47.044;15.744;2022-10-17T04:09:34;40.00;;;8.43;;
2772;SDS011;1394;47.044;15.744;2022-10-17T04:12:02;44.63;;;8.97;;
2772;SDS011;1394;47.044;15.744;2022-10-17T04:14:29;31.73;;;7.40;;
2772;SDS011;1394;47.044;15.744;2022-10-17T04:16:56;32.03;;;6.90;;
2772;SDS011;1394;47.044;15.744;2022-10-17T04:19:25;34.83;;;7.87;;
2772;SDS011;1394;47.044;15.744;2022-10-17T04:21:52;31.30;;;7.40;;
2772;SDS011;1394;47.044;15.744;2022-10-17T04:24:19;38.37;;;9.90;;
2772;SDS011;1394;47.044;15.744;2022-10-17T04:26:48;30.87;;;7.03;;
2772;SDS011;1394;47.044;15.744;2022-10-17T04:29:16;32.73;;;6.50;;
2772;SDS011;1394;47.044;15.744;2022-10-17T04:31:44;31.10;;;7.20;;
2772;SDS011;1394;47.044;15.744;2022-10-17T04:34:11;30.37;;;6.80;;
2772;SDS011;1394;47.044;15.744;2022-10-17T04:36:40;30.90;;;6.93;;
2772;SDS011;1394;47.044;15.744;2022-10-17T04:39:07;38.43;;;9.60;;
2772;SDS011;1394;47.044;15.744;2022-10-17T04:41:34;31.93;;;7.60;;
2772;SDS011;1394;47.044;15.744;2022-10-17T04:44:02;31.27;;;7.20;;
2772;SDS011;1394;47.044;15.744;2022-10-17T04:46:32;31.43;;;6.67;;
2772;SDS011;1394;47.044;15.744;2022-10-17T04:48:59;31.00;;;7.37;;
2772;SDS011;1394;47.044;15.744;2022-10-17T04:51:26;30.80;;;7.20;;
2772;SDS011;1394;47.044;15.744;2022-10-17T04:53:55;31.43;;;7.60;;
2772;SDS011;1394;47.044;15.744;2022-10-17T04:56:23;30.47;;;6.80;;
2772;SDS011;1394;47.044;15.744;2022-10-17T04:58:50;31.83;;;8.03;;
2772;SDS011;1394;47.044;15.744;2022-10-17T05:01:19;30.00;;;6.60;;
2772;SDS011;1394;47.044;15.744;2022-10-17T05:03:46;31.60;;;7.03;;
2772;SDS011;1394;47.044;15.744;2022-10-17T05:06:14;30.07;;;6.10;;
2772;SDS011;1394;47.044;15.744;2022-10-17T05:08:42;30.00;;;6.17;;
2772;SDS011;1394;47.044;15.744;2022-10-17T05:11:15;31.10;;;6.43;;
2772;SDS011;1394;47.044;15.744;2022-10-17T05:13:43;30.10;;;6.70;;
2772;SDS011;1394;47.044;15.744;2022-10-17T05:16:10;30.83;;;6.73;;
2772;SDS011;1394;47.044;15.744;2022-10-17T05:18:37;31.10;;;6.97;;
2772;SDS011;1394;47.044;15.744;2022-10-17T05:21:05;30.20;;;6.67;;
2772;SDS011;1394;47.044;15.744;2022-10-17T05:23:32;30.90;;;6.37;;
2772;SDS011;1394;47.044;15.744;2022-10-17T05:25:59;31.33;;;6.60;;
2772;SDS011;1394;47.044;15.744;2022-10-17T05:28:29;35.70;;;11.63;;
2772;SDS011;1394;47.044;15.744;2022-10-17T05:30:56;31.00;;;7.60;;
2772;SDS011;1394;47.044;15.744;2022-10-17T05:33:23;35.73;;;9.17;;
2772;SDS011;1394;47.044;15.744;2022-10-17T05:35:51;31.67;;;7.40;;
2772;SDS011;1394;47.044;15.744;2022-10-17T05:38:18;31.70;;;7.70;;
2772;SDS011;1394;47.044;15.744;2022-10-17T05:40:45;31.27;;;7.90;;
2772;SDS011;1394;47.044;15.744;2022-10-17T05:43:12;30.90;;;6.90;;
2772;SDS011;1394;47.044;15.744;2022-10-17T05:45:41;36.60;;;8.40;;
2772;SDS011;1394;47.044;15.744;2022-10-17T05:48:08;31.90;;;6.93;;
2772;SDS011;1394;47.044;15.744;2022-10-17T05:50:35;37.37;;;10.10;;
2772;SDS011;1394;47.044;15.744;2022-10-17T05:53:03;31.80;;;7.47;;
2772;SDS011;1394;47.044;15.744;2022-10-17T05:55:31;32.17;;;9.10;;
2772;SDS011;1394;47.044;15.744;2022-10-17T05:57:58;31.67;;;8.03;;
2772;SDS011;1394;47.044;15.744;2022-10-17T06:00:28;31.20;;;7.37;;
2772;SDS011;1394;47.044;15.744;2022-10-17T06:02:57;30.80;;;7.17;;
2772;SDS011;1394;47.044;15.744;2022-10-17T06:05:24;30.03;;;6.37;;
2772;SDS011;1394;47.044;15.744;2022-10-17T06:07:51;31.10;;;6.90;;
2772;SDS011;1394;47.044;15.744;2022-10-17T06:10:19;30.30;;;7.33;;
2772;SDS011;1394;47.044;15.744;2022-10-17T06:12:46;30.20;;;6.50;;
2772;SDS011;1394;47.044;15.744;2022-10-17T06:15:13;31.20;;;6.93;;
2772;SDS011;1394;47.044;15.744;2022-10-17T06:17:40;30.67;;;7.03;;
2772;SDS011;1394;47.044;15.744;2022-10-17T06:20:10;33.37;;;9.13;;
2772;SDS011;1394;47.044;15.744;2022-10-17T06:22:37;31.10;;;6.80;;
2772;SDS011;1394;47.044;15.744;2022-10-17T06:25:05;29.70;;;6.30;;
2772;SDS011;1394;47.044;15.744;2022-10-17T06:27:32;30.53;;;6.50;;
2772;SDS011;1394;47.044;15.744;2022-10-17T06:29:59;29.20;;;5.53;;
2772;SDS011;1394;47.044;15.744;2022-10-17T06:32:27;29.97;;;6.00;;
2772;SDS011;1394;47.044;15.744;2022-10-17T06:34:54;30.40;;;6.00;;
2772;SDS011;1394;47.044;15.744;2022-10-17T06:37:24;29.47;;;6.20;;
2772;SDS011;1394;47.044;15.744;2022-10-17T06:39:51;29.80;;;5.60;;
2772;SDS011;1394;47.044;15.744;2022-10-17T06:42:18;30.43;;;7.07;;
2772;SDS011;1394;47.044;15.744;2022-10-17T06:44:45;29.97;;;6.43;;
2772;SDS011;1394;47.044;15.744;2022-10-17T06:47:13;29.67;;;6.50;;
2772;SDS011;1394;47.044;15.744;2022-10-17T06:49:40;32.50;;;8.10;;
2772;SDS011;1394;47.044;15.744;2022-10-17T06:52:08;31.00;;;6.90;;
2772;SDS011;1394;47.044;15.744;2022-10-17T06:54:37;30.30;;;6.83;;
2772;SDS011;1394;47.044;15.744;2022-10-17T06:57:04;31.90;;;8.57;;
2772;SDS011;1394;47.044;15.744;2022-10-17T06:59:34;30.00;;;6.80;;
2772;SDS011;1394;47.044;15.744;2022-10-17T07:02:02;30.93;;;7.97;;
2772;SDS011;1394;47.044;15.744;2022-10-17T07:04:29;31.47;;;7.87;;
2772;SDS011;1394;47.044;15.744;2022-10-17T07:06:56;30.27;;;7.13;;
2772;SDS011;1394;47.044;15.744;2022-10-17T07:09:27;32.43;;;7.83;;
2772;SDS011;1394;47.044;15.744;2022-10-17T07:11:56;31.57;;;8.00;;
2772;SDS011;1394;47.044;15.744;2022-10-17T07:14:24;31.00;;;7.60;;
2772;SDS011;1394;47.044;15.744;2022-10-17T07:16:56;30.97;;;7.20;;
2772;SDS011;1394;47.044;15.744;2022-10-17T07:19:23;30.73;;;7.67;;
2772;SDS011;1394;47.044;15.744;2022-10-17T07:21:51;31.37;;;7.67;;
2772;SDS011;1394;47.044;15.744;2022-10-17T07:24:18;31.60;;;7.73;;
2772;SDS011;1394;47.044;15.744;2022-10-17T07:26:45;31.80;;;7.40;;
2772;SDS011;1394;47.044;15.744;2022-10-17T07:29:14;32.27;;;8.37;;
2772;SDS011;1394;47.044;15.744;2022-10-17T07:31:41;31.40;;;7.90;;
2772;SDS011;1394;47.044;15.744;2022-10-17T07:34:12;31.43;;;7.50;;
2772;SDS011;1394;47.044;15.744;2022-10-17T07:36:40;31.10;;;7.23;;
2772;SDS011;1394;47.044;15.744;2022-10-17T07:39:07;31.17;;;7.13;;
2772;SDS011;1394;47.044;15.744;2022-10-17T07:41:35;30.93;;;7.30;;
2772;SDS011;1394;47.044;15.744;2022-10-17T07:44:03;31.43;;;7.43;;
2772;SDS011;1394;47.044;15.744;2022-10-17T07:46:32;32.10;;;7.80;;
2772;SDS011;1394;47.044;15.744;2022-10-17T07:49:00;31.70;;;7.43;;
2772;SDS011;1394;47.044;15.744;2022-10-17T07:51:27;34.80;;;7.27;;
2772;SDS011;1394;47.044;15.744;2022-10-17T07:53:54;31.10;;;7.23;;
2772;SDS011;1394;47.044;15.744;2022-10-17T07:56:22;33.17;;;6.97;;
2772;SDS011;1394;47.044;15.744;2022-10-17T07:58:54;30.97;;;7.30;;
2772;SDS011;1394;47.044;15.744;2022-10-17T08:01:21;31.63;;;7.40;;
2772;SDS011;1394;47.044;15.744;2022-10-17T08:03:51;32.13;;;8.37;;
2772;SDS011;1394;47.044;15.744;2022-10-17T08:06:18;32.43;;;7.20;;
2772;SDS011;1394;47.044;15.744;2022-10-17T08:08:45;33.87;;;8.13;;
2772;SDS011;1394;47.044;15.744;2022-10-17T08:11:13;31.90;;;7.93;;
2772;SDS011;1394;47.044;15.744;2022-10-17T08:13:41;32.50;;;9.10;;
2772;SDS011;1394;47.044;15.744;2022-10-17T08:16:11;31.23;;;7.77;;
2772;SDS011;1394;47.044;15.744;2022-10-17T08:18:42;33.77;;;7.67;;
2772;SDS011;1394;47.044;15.744;2022-10-17T08:21:11;31.10;;;8.10;;
2772;SDS011;1394;47.044;15.744;2022-10-17T08:23:41;31.60;;;7.73;;
2772;SDS011;1394;47.044;15.744;2022-10-17T08:26:08;32.87;;;8.00;;
2772;SDS011;1394;47.044;15.744;2022-10-17T08:28:38;30.93;;;7.23;;
2772;SDS011;1394;47.044;15.744;2022-10-17T08:31:07;32.20;;;8.13;;
2772;SDS011;1394;47.044;15.744;2022-10-17T08:33:34;32.63;;;7.60;;
2772;SDS011;1394;47.044;15.744;2022-10-17T08:36:02;32.80;;;7.90;;
2772;SDS011;1394;47.044;15.744;2022-10-17T08:38:31;30.40;;;7.00;;
2772;SDS011;1394;47.044;15.744;2022-10-17T08:40:59;30.13;;;6.33;;
2772;SDS011;1394;47.044;15.744;2022-10-17T08:43:30;31.00;;;7.30;;
2772;SDS011;1394;47.044;15.744;2022-10-17T08:45:58;30.87;;;6.83;;
2772;SDS011;1394;47.044;15.744;2022-10-17T08:48:27;30.70;;;6.53;;
2772;SDS011;1394;47.044;15.744;2022-10-17T08:50:56;31.80;;;7.27;;
2772;SDS011;1394;47.044;15.744;2022-10-17T08:53:26;30.60;;;7.17;;
2772;SDS011;1394;47.044;15.744;2022-10-17T08:55:57;32.60;;;7.70;;
2772;SDS011;1394;47.044;15.744;2022-10-17T08:58:26;31.13;;;7.03;;
2772;SDS011;1394;47.044;15.744;2022-10-17T09:00:58;32.90;;;7.03;;
2772;SDS011;1394;47.044;15.744;2022-10-17T09:03:37;31.30;;;7.00;;
2772;SDS011;1394;47.044;15.744;2022-10-17T09:06:10;31.13;;;6.77;;
2772;SDS011;1394;47.044;15.744;2022-10-17T09:08:41;31.17;;;7.00;;
2772;SDS011;1394;47.044;15.744;2022-10-17T09:11:13;32.30;;;7.60;;
2772;SDS011;1394;47.044;15.744;2022-10-17T09:13:47;32.50;;;6.70;;
2772;SDS011;1394;47.044;15.744;2022-10-17T09:16:24;30.50;;;6.13;;
2772;SDS011;1394;47.044;15.744;2022-10-17T09:18:58;30.87;;;6.30;;
2772;SDS011;1394;47.044;15.744;2022-10-17T09:21:27;31.10;;;7.23;;
2772;SDS011;1394;47.044;15.744;2022-10-17T09:23:57;31.77;;;7.50;;
2772;SDS011;1394;47.044;15.744;2022-10-17T09:26:26;31.07;;;7.10;;
2772;SDS011;1394;47.044;15.744;2022-10-17T09:28:54;31.10;;;7.03;;
2772;SDS011;1394;47.044;15.744;2022-10-17T09:31:24;30.70;;;7.03;;
2772;SDS011;1394;47.044;15.744;2022-10-17T09:33:53;31.17;;;7.20;;
2772;SDS011;1394;47.044;15.744;2022-10-17T09:36:22;31.07;;;6.80;;
2772;SDS011;1394;47.044;15.744;2022-10-17T09:38:54;31.10;;;6.87;;
2772;SDS011;1394;47.044;15.744;2022-10-17T09:41:32;31.17;;;6.73;;
2772;SDS011;1394;47.044;15.744;2022-10-17T09:44:10;31.27;;;6.50;;
2772;SDS011;1394;47.044;15.744;2022-10-17T09:46:38;30.60;;;6.80;;
2772;SDS011;1394;47.044;15.744;2022-10-17T09:49:09;30.67;;;6.23;;
2772;SDS011;1394;47.044;15.744;2022-10-17T09:51:37;30.40;;;6.20;;
2772;SDS011;1394;47.044;15.744;2022-10-17T09:54:10;30.47;;;6.00;;
2772;SDS011;1394;47.044;15.744;2022-10-17T09:56:55;30.53;;;6.73;;
2772;SDS011;1394;47.044;15.744;2022-10-17T09:59:32;30.10;;;6.40;;
2772;SDS011;1394;47.044;15.744;2022-10-17T10:02:07;30.07;;;6.20;;
2772;SDS011;1394;47.044;15.744;2022-10-17T10:04:35;29.93;;;5.43;;
2772;SDS011;1394;47.044;15.744;2022-10-17T10:07:03;30.07;;;5.70;;
2772;SDS011;1394;47.044;15.744;2022-10-17T10:09:31;29.97;;;5.87;;
2772;SDS011;1394;47.044;15.744;2022-10-17T10:12:00;30.47;;;6.03;;
2772;SDS011;1394;47.044;15.744;2022-10-17T10:14:29;29.80;;;5.87;;
2772;SDS011;1394;47.044;15.744;2022-10-17T10:17:00;30.53;;;6.40;;
2772;SDS011;1394;47.044;15.744;2022-10-17T10:19:29;30.17;;;6.53;;
2772;SDS011;1394;47.044;15.744;2022-10-17T10:21:58;30.23;;;5.97;;
2772;SDS011;1394;47.044;15.744;2022-10-17T10:24:26;30.57;;;6.53;;
2772;SDS011;1394;47.044;15.744;2022-10-17T10:26:54;30.13;;;6.00;;
2772;SDS011;1394;47.044;15.744;2022-10-17T10:29:23;29.87;;;6.10;;
2772;SDS011;1394;47.044;15.744;2022-10-17T10:31:53;30.63;;;5.90;;
2772;SDS011;1394;47.044;15.744;2022-10-17T10:34:23;30.67;;;6.20;;
2772;SDS011;1394;47.044;15.744;2022-10-17T10:37:01;29.90;;;6.27;;
2772;SDS011;1394;47.044;15.744;2022-10-17T10:39:32;31.00;;;6.33;;
2772;SDS011;1394;47.044;15.744;2022-10-17T10:42:01;29.60;;;5.90;;
2772;SDS011;1394;47.044;15.744;2022-10-17T10:44:29;29.93;;;6.00;;
2772;SDS011;1394;47.044;15.744;2022-10-17T10:47:07;29.97;;;6.00;;
2772;SDS011;1394;47.044;15.744;2022-10-17T10:49:36;30.97;;;6.50;;
2772;SDS011;1394;47.044;15.744;2022-10-17T10:52:04;31.00;;;6.80;;
2772;SDS011;1394;47.044;15.744;2022-10-17T10:54:33;30.10;;;6.67;;
2772;SDS011;1394;47.044;15.744;2022-10-17T10:57:03;31.37;;;6.30;;
2772;SDS011;1394;47.044;15.744;2022-10-17T10:59:34;31.13;;;6.40;;
2772;SDS011;1394;47.044;15.744;2022-10-17T11:02:03;31.13;;;6.63;;
2772;SDS011;1394;47.044;15.744;2022-10-17T11:04:38;33.50;;;6.37;;
2772;SDS011;1394;47.044;15.744;2022-10-17T11:07:12;34.20;;;6.20;;
2772;SDS011;1394;47.044;15.744;2022-10-17T11:09:44;30.17;;;5.97;;
2772;SDS011;1394;47.044;15.744;2022-10-17T11:12:13;30.50;;;6.03;;
2772;SDS011;1394;47.044;15.744;2022-10-17T11:14:44;30.50;;;5.93;;
2772;SDS011;1394;47.044;15.744;2022-10-17T11:17:16;30.30;;;5.90;;
2772;SDS011;1394;47.044;15.744;2022-10-17T11:19:49;30.10;;;6.37;;
2772;SDS011;1394;47.044;15.744;2022-10-17T11:22:20;29.67;;;5.70;;
2772;SDS011;1394;47.044;15.744;2022-10-17T11:24:49;29.67;;;5.70;;
2772;SDS011;1394;47.044;15.744;2022-10-17T11:27:21;29.70;;;5.60;;
2772;SDS011;1394;47.044;15.744;2022-10-17T11:29:48;30.53;;;5.63;;
2772;SDS011;1394;47.044;15.744;2022-10-17T11:32:16;29.10;;;5.37;;
2772;SDS011;1394;47.044;15.744;2022-10-17T11:34:47;29.80;;;5.90;;
2772;SDS011;1394;47.044;15.744;2022-10-17T11:37:18;30.43;;;5.80;;
2772;SDS011;1394;47.044;15.744;2022-10-17T11:39:48;29.30;;;5.50;;
2772;SDS011;1394;47.044;15.744;2022-10-17T11:42:18;29.87;;;5.03;;
2772;SDS011;1394;47.044;15.744;2022-10-17T11:44:46;29.40;;;5.20;;
2772;SDS011;1394;47.044;15.744;2022-10-17T11:47:25;29.80;;;5.40;;
2772;SDS011;1394;47.044;15.744;2022-10-17T11:49:53;30.00;;;5.27;;
2772;SDS011;1394;47.044;15.744;2022-10-17T11:52:29;29.90;;;6.13;;
2772;SDS011;1394;47.044;15.744;2022-10-17T11:55:00;29.20;;;4.93;;
2772;SDS011;1394;47.044;15.744;2022-10-17T11:57:34;29.67;;;5.10;;
2772;SDS011;1394;47.044;15.744;2022-10-17T12:00:10;29.70;;;4.93;;
2772;SDS011;1394;47.044;15.744;2022-10-17T12:02:45;30.13;;;5.30;;
2772;SDS011;1394;47.044;15.744;2022-10-17T12:05:18;30.17;;;5.40;;
2772;SDS011;1394;47.044;15.744;2022-10-17T12:07:48;29.50;;;4.93;;
2772;SDS011;1394;47.044;15.744;2022-10-17T12:10:22;28.97;;;5.17;;
2772;SDS011;1394;47.044;15.744;2022-10-17T12:12:50;29.73;;;5.50;;
2772;SDS011;1394;47.044;15.744;2022-10-17T12:15:28;31.83;;;5.60;;
2772;SDS011;1394;47.044;15.744;2022-10-17T12:17:58;28.70;;;4.93;;
2772;SDS011;1394;47.044;15.744;2022-10-17T12:20:28;29.07;;;4.80;;
2772;SDS011;1394;47.044;15.744;2022-10-17T12:22:59;29.10;;;5.33;;
2772;SDS011;1394;47.044;15.744;2022-10-17T12:25:28;30.30;;;5.30;;
2772;SDS011;1394;47.044;15.744;2022-10-17T12:28:09;30.10;;;4.67;;
2772;SDS011;1394;47.044;15.744;2022-10-17T12:30:42;29.87;;;5.23;;
2772;SDS011;1394;47.044;15.744;2022-10-17T12:33:15;28.33;;;4.17;;
2772;SDS011;1394;47.044;15.744;2022-10-17T12:38:48;28.60;;;4.63;;
2772;SDS011;1394;47.044;15.744;2022-10-17T12:41:17;28.37;;;4.53;;
2772;SDS011;1394;47.044;15.744;2022-10-17T12:44:05;29.77;;;5.00;;
2772;SDS011;1394;47.044;15.744;2022-10-17T12:46:55;28.57;;;4.23;;
2772;SDS011;1394;47.044;15.744;2022-10-17T12:49:35;28.97;;;4.37;;
2772;SDS011;1394;47.044;15.744;2022-10-17T12:52:05;28.60;;;4.30;;
2772;SDS011;1394;47.044;15.744;2022-10-17T12:54:39;28.00;;;4.13;;
2772;SDS011;1394;47.044;15.744;2022-10-17T12:57:12;28.87;;;4.40;;
2772;SDS011;1394;47.044;15.744;2022-10-17T12:59:42;29.10;;;4.63;;
2772;SDS011;1394;47.044;15.744;2022-10-17T13:02:11;28.30;;;4.07;;
2772;SDS011;1394;47.044;15.744;2022-10-17T13:04:42;28.40;;;4.20;;
2772;SDS011;1394;47.044;15.744;2022-10-17T13:07:11;30.10;;;5.00;;
2772;SDS011;1394;47.044;15.744;2022-10-17T13:09:44;28.20;;;4.07;;
2772;SDS011;1394;47.044;15.744;2022-10-17T13:12:13;28.83;;;4.87;;
2772;SDS011;1394;47.044;15.744;2022-10-17T13:14:41;29.07;;;4.80;;
2772;SDS011;1394;47.044;15.744;2022-10-17T13:17:19;28.60;;;4.33;;
2772;SDS011;1394;47.044;15.744;2022-10-17T13:19:47;28.47;;;3.80;;
2772;SDS011;1394;47.044;15.744;2022-10-17T13:22:15;28.20;;;3.97;;
2772;SDS011;1394;47.044;15.744;2022-10-17T13:24:45;28.00;;;3.87;;
2772;SDS011;1394;47.044;15.744;2022-10-17T13:27:26;28.57;;;4.50;;
2772;SDS011;1394;47.044;15.744;2022-10-17T13:29:54;28.60;;;4.80;;
2772;SDS011;1394;47.044;15.744;2022-10-17T13:32:22;28.80;;;4.50;;
2772;SDS011;1394;47.044;15.744;2022-10-17T13:35:06;30.23;;;4.10;;
2772;SDS011;1394;47.044;15.744;2022-10-17T13:37:33;29.57;;;4.30;;
2772;SDS011;1394;47.044;15.744;2022-10-17T13:40:03;28.90;;;4.33;;
2772;SDS011;1394;47.044;15.744;2022-10-17T13:42:36;29.20;;;4.03;;
2772;SDS011;1394;47.044;15.744;2022-10-17T13:45:08;28.60;;;4.10;;
2772;SDS011;1394;47.044;15.744;2022-10-17T13:47:37;28.37;;;4.20;;
2772;SDS011;1394;47.044;15.744;2022-10-17T13:50:05;29.60;;;4.17;;
2772;SDS011;1394;47.044;15.744;2022-10-17T13:52:33;30.47;;;3.97;;
2772;SDS011;1394;47.044;15.744;2022-10-17T13:55:08;29.10;;;4.23;;
2772;SDS011;1394;47.044;15.744;2022-10-17T13:57:44;29.17;;;4.27;;
2772;SDS011;1394;47.044;15.744;2022-10-17T14:00:16;29.43;;;4.20;;
2772;SDS011;1394;47.044;15.744;2022-10-17T14:02:44;29.23;;;4.57;;
2772;SDS011;1394;47.044;15.744;2022-10-17T14:05:13;28.90;;;4.20;;
2772;SDS011;1394;47.044;15.744;2022-10-17T14:07:41;28.63;;;4.13;;
2772;SDS011;1394;47.044;15.744;2022-10-17T14:10:18;29.50;;;4.83;;
2772;SDS011;1394;47.044;15.744;2022-10-17T14:12:45;28.90;;;4.47;;
2772;SDS011;1394;47.044;15.744;2022-10-17T14:15:13;29.13;;;4.63;;
2772;SDS011;1394;47.044;15.744;2022-10-17T14:17:41;29.67;;;4.40;;
2772;SDS011;1394;47.044;15.744;2022-10-17T14:20:15;28.50;;;4.10;;
2772;SDS011;1394;47.044;15.744;2022-10-17T14:22:43;29.47;;;5.23;;
2772;SDS011;1394;47.044;15.744;2022-10-17T14:28:12;29.67;;;4.93;;
2772;SDS011;1394;47.044;15.744;2022-10-17T14:30:41;29.10;;;4.40;;
2772;SDS011;1394;47.044;15.744;2022-10-17T14:33:11;29.47;;;4.70;;
2772;SDS011;1394;47.044;15.744;2022-10-17T14:35:47;29.63;;;4.60;;
2772;SDS011;1394;47.044;15.744;2022-10-17T14:38:15;29.10;;;4.80;;
2772;SDS011;1394;47.044;15.744;2022-10-17T14:40:48;29.17;;;4.70;;
2772;SDS011;1394;47.044;15.744;2022-10-17T14:43:18;31.70;;;5.00;;
2772;SDS011;1394;47.044;15.744;2022-10-17T14:45:47;29.70;;;4.73;;
2772;SDS011;1394;47.044;15.744;2022-10-17T14:48:16;30.20;;;5.17;;
2772;SDS011;1394;47.044;15.744;2022-10-17T14:53:26;29.60;;;5.17;;
2772;SDS011;1394;47.044;15.744;2022-10-17T14:55:57;31.13;;;5.30;;
2772;SDS011;1394;47.044;15.744;2022-10-17T14:58:27;30.40;;;5.30;;
2772;SDS011;1394;47.044;15.744;2022-10-17T15:00:55;30.27;;;5.37;;
2772;SDS011;1394;47.044;15.744;2022-10-17T15:03:23;30.07;;;5.50;;
2772;SDS011;1394;47.044;15.744;2022-10-17T15:05:51;29.77;;;5.53;;
2772;SDS011;1394;47.044;15.744;2022-10-17T15:08:20;30.27;;;4.80;;
2772;SDS011;1394;47.044;15.744;2022-10-17T15:10:48;30.73;;;5.30;;
2772;SDS011;1394;47.044;15.744;2022-10-17T15:13:16;30.17;;;4.90;;
2772;SDS011;1394;47.044;15.744;2022-10-17T15:15:44;30.10;;;5.40;;